Airfield :
LOGIN :

Register | Disclaimer

   EN    FR    IT 

 










Legend :    VFR   Marginal VFR   IFR   Intensive IFR   Very Intensive IFR
Visi :
Ceiling :
>= 8 km
>= 3000ft
5 to 8 km
1000 to 3000 ft
1500m to 5 km
500 to 1000 ft
800 to 1500m
200 to 500 ft
< 800m
< 200 ft
Symbols :   Thunderstorms  Fog  Heavy snow  Heavy precipitations  Wind > 20 kt
SIGMETs :     Misc.  Thunderstorms  Icing  Turbulence  Mountain Waves  Volcanic Ashes






- Airport Elevation : 357 ft
- IATA code : TUF


LFOT - Tours

CURRENT METAR :
  • 180400Z AUTO 02004KT 350V050 1200 0750 R20/0900U BCFG NSC 02/01 Q1035 BECMG 9999 NSW BKN008

EXPIRED METARs :
  • 180330Z AUTO 35002KT 2400 0900 R20/1200U BCFG FEW002 02/02 Q1035 BECMG 08010KT 9999 NSW BKN008
  • 180300Z AUTO 26002KT 1500 1400 R20/2200D BR BKN002 01/01 Q1036 NOSIG
  • 180230Z AUTO VRB02KT 0900 0750 R20/1300D FG SCT005 02/02 Q1036 TEMPO BKN003
  • 180200Z AUTO 09002KT 2700 BR OVC007 02/02 Q1036 TEMPO 1200 BR BKN003
  • 180130Z AUTO VRB03KT 5000 BR SCT009 02/02 Q1037 BECMG BKN008

TAF AMD TAF LFOT
Valid from the 18 at 01:00 until the 19 at 00:00 UTC


180131Z 1801/1824 VRB04KT 9999 BKN020
TEMPO 1801/1805 4000 BR BKN004
PROB30
TEMPO 1801/1805 1200 BR BKN003
BECMG 1805/1807 08010KT BKN008
BECMG 1817/1819 SCT014 BKN020
BECMG 1819/1821 VRB02KT
TEMPO 1821/1824 4000 -RA BKN014



MET'MAP, your aeronautical weather chart ! - Copyright ORBIFLY December 2007 - Disclaimer

ORBIFLY MET'MAP TEAM :

Programming & Development : Alexandra Zaïnal
Concept & original design : Baudouin d'Aumeries
Assistance for programming : Marc-Olivier Méhu
Technical & hardware support : Manuel Goepfert

Contact : metmap@orbifly.com




SOURCES & CREDITS :

   NOAA